sensor_id;sensor_type;location;lat;lon;timestamp;P1;durP1;ratioP1;P2;durP2;ratioP2
28431;SDS011;15664;51.302;7.744;2023-05-06T00:01:30;30.70;;;6.23;;
28431;SDS011;15664;51.302;7.744;2023-05-06T00:03:55;19.83;;;5.53;;
28431;SDS011;15664;51.302;7.744;2023-05-06T00:06:21;17.53;;;5.47;;
28431;SDS011;15664;51.302;7.744;2023-05-06T00:08:46;18.53;;;5.60;;
28431;SDS011;15664;51.302;7.744;2023-05-06T00:11:12;22.27;;;5.97;;
28431;SDS011;15664;51.302;7.744;2023-05-06T00:13:37;20.10;;;6.23;;
28431;SDS011;15664;51.302;7.744;2023-05-06T00:16:03;19.67;;;6.13;;
28431;SDS011;15664;51.302;7.744;2023-05-06T00:18:29;23.27;;;5.15;;
28431;SDS011;15664;51.302;7.744;2023-05-06T00:20:54;15.90;;;5.57;;
28431;SDS011;15664;51.302;7.744;2023-05-06T00:23:20;15.57;;;5.20;;
28431;SDS011;15664;51.302;7.744;2023-05-06T00:25:46;17.03;;;5.50;;
28431;SDS011;15664;51.302;7.744;2023-05-06T00:28:12;18.58;;;5.97;;
28431;SDS011;15664;51.302;7.744;2023-05-06T00:30:37;14.70;;;5.40;;
28431;SDS011;15664;51.302;7.744;2023-05-06T00:33:02;15.70;;;5.57;;
28431;SDS011;15664;51.302;7.744;2023-05-06T00:35:28;20.00;;;5.93;;
28431;SDS011;15664;51.302;7.744;2023-05-06T00:37:57;19.05;;;5.93;;
28431;SDS011;15664;51.302;7.744;2023-05-06T00:40:30;20.87;;;6.17;;
28431;SDS011;15664;51.302;7.744;2023-05-06T00:42:55;17.77;;;6.80;;
28431;SDS011;15664;51.302;7.744;2023-05-06T00:45:20;18.77;;;6.23;;
28431;SDS011;15664;51.302;7.744;2023-05-06T00:47:45;15.48;;;5.97;;
28431;SDS011;15664;51.302;7.744;2023-05-06T00:50:11;19.10;;;6.13;;
28431;SDS011;15664;51.302;7.744;2023-05-06T00:52:36;16.90;;;5.63;;
28431;SDS011;15664;51.302;7.744;2023-05-06T00:55:02;21.02;;;5.70;;
28431;SDS011;15664;51.302;7.744;2023-05-06T00:57:28;16.20;;;4.73;;
28431;SDS011;15664;51.302;7.744;2023-05-06T00:59:53;14.13;;;5.27;;
28431;SDS011;15664;51.302;7.744;2023-05-06T01:02:19;19.83;;;5.68;;
28431;SDS011;15664;51.302;7.744;2023-05-06T01:04:45;17.20;;;5.90;;
28431;SDS011;15664;51.302;7.744;2023-05-06T01:10:02;20.05;;;6.18;;
28431;SDS011;15664;51.302;7.744;2023-05-06T01:12:33;17.50;;;5.90;;
28431;SDS011;15664;51.302;7.744;2023-05-06T01:15:03;18.60;;;6.03;;
28431;SDS011;15664;51.302;7.744;2023-05-06T01:17:33;16.73;;;5.57;;
28431;SDS011;15664;51.302;7.744;2023-05-06T01:19:59;21.02;;;6.43;;
28431;SDS011;15664;51.302;7.744;2023-05-06T01:22:25;23.45;;;6.95;;
28431;SDS011;15664;51.302;7.744;2023-05-06T01:24:52;21.70;;;6.57;;
28431;SDS011;15664;51.302;7.744;2023-05-06T01:27:20;18.07;;;5.80;;
28431;SDS011;15664;51.302;7.744;2023-05-06T01:29:46;16.48;;;5.72;;
28431;SDS011;15664;51.302;7.744;2023-05-06T01:35:02;14.95;;;5.97;;
28431;SDS011;15664;51.302;7.744;2023-05-06T01:40:05;18.98;;;6.18;;
28431;SDS011;15664;51.302;7.744;2023-05-06T01:42:31;21.38;;;6.82;;
28431;SDS011;15664;51.302;7.744;2023-05-06T01:44:58;19.83;;;7.13;;
28431;SDS011;15664;51.302;7.744;2023-05-06T01:47:25;21.58;;;6.95;;
28431;SDS011;15664;51.302;7.744;2023-05-06T01:49:51;18.83;;;5.85;;
28431;SDS011;15664;51.302;7.744;2023-05-06T01:52:16;21.67;;;6.93;;
28431;SDS011;15664;51.302;7.744;2023-05-06T01:54:42;19.40;;;7.03;;
28431;SDS011;15664;51.302;7.744;2023-05-06T01:57:08;21.88;;;7.18;;
28431;SDS011;15664;51.302;7.744;2023-05-06T01:59:34;20.63;;;7.37;;
28431;SDS011;15664;51.302;7.744;2023-05-06T02:01:59;20.63;;;7.15;;
28431;SDS011;15664;51.302;7.744;2023-05-06T02:04:25;22.53;;;6.83;;
28431;SDS011;15664;51.302;7.744;2023-05-06T02:06:50;22.87;;;7.20;;
28431;SDS011;15664;51.302;7.744;2023-05-06T02:09:16;22.58;;;7.45;;
28431;SDS011;15664;51.302;7.744;2023-05-06T02:11:49;26.83;;;8.03;;
28431;SDS011;15664;51.302;7.744;2023-05-06T02:14:14;21.60;;;8.30;;
28431;SDS011;15664;51.302;7.744;2023-05-06T02:16:39;27.07;;;8.10;;
28431;SDS011;15664;51.302;7.744;2023-05-06T02:19:05;28.97;;;8.23;;
28431;SDS011;15664;51.302;7.744;2023-05-06T02:21:31;30.60;;;8.27;;
28431;SDS011;15664;51.302;7.744;2023-05-06T02:23:57;28.23;;;9.43;;
28431;SDS011;15664;51.302;7.744;2023-05-06T02:26:23;30.60;;;8.45;;
28431;SDS011;15664;51.302;7.744;2023-05-06T02:28:49;25.93;;;8.30;;
28431;SDS011;15664;51.302;7.744;2023-05-06T02:31:14;24.50;;;7.13;;
28431;SDS011;15664;51.302;7.744;2023-05-06T02:33:40;27.02;;;7.18;;
28431;SDS011;15664;51.302;7.744;2023-05-06T02:36:05;29.63;;;7.73;;
28431;SDS011;15664;51.302;7.744;2023-05-06T02:38:31;27.55;;;7.43;;
28431;SDS011;15664;51.302;7.744;2023-05-06T02:40:58;24.50;;;7.30;;
28431;SDS011;15664;51.302;7.744;2023-05-06T02:43:24;22.13;;;6.95;;
28431;SDS011;15664;51.302;7.744;2023-05-06T02:45:49;22.70;;;7.83;;
28431;SDS011;15664;51.302;7.744;2023-05-06T02:48:15;20.93;;;7.07;;
28431;SDS011;15664;51.302;7.744;2023-05-06T02:50:40;26.02;;;7.50;;
28431;SDS011;15664;51.302;7.744;2023-05-06T02:53:06;18.38;;;6.85;;
28431;SDS011;15664;51.302;7.744;2023-05-06T02:55:33;20.35;;;6.65;;
28431;SDS011;15664;51.302;7.744;2023-05-06T02:57:58;21.10;;;6.87;;
28431;SDS011;15664;51.302;7.744;2023-05-06T03:00:24;21.50;;;6.90;;
28431;SDS011;15664;51.302;7.744;2023-05-06T03:02:49;24.47;;;6.70;;
28431;SDS011;15664;51.302;7.744;2023-05-06T03:05:15;26.17;;;7.63;;
28431;SDS011;15664;51.302;7.744;2023-05-06T03:07:40;21.70;;;7.50;;
28431;SDS011;15664;51.302;7.744;2023-05-06T03:10:06;21.13;;;6.70;;
28431;SDS011;15664;51.302;7.744;2023-05-06T03:12:34;24.67;;;6.68;;
28431;SDS011;15664;51.302;7.744;2023-05-06T03:15:00;21.27;;;6.50;;
28431;SDS011;15664;51.302;7.744;2023-05-06T03:17:25;21.67;;;6.53;;
28431;SDS011;15664;51.302;7.744;2023-05-06T03:19:51;24.48;;;7.10;;
28431;SDS011;15664;51.302;7.744;2023-05-06T03:22:17;21.37;;;5.80;;
28431;SDS011;15664;51.302;7.744;2023-05-06T03:24:44;21.08;;;6.60;;
28431;SDS011;15664;51.302;7.744;2023-05-06T03:27:10;24.23;;;7.22;;
28431;SDS011;15664;51.302;7.744;2023-05-06T03:29:36;18.25;;;6.43;;
28431;SDS011;15664;51.302;7.744;2023-05-06T03:32:02;21.37;;;6.77;;
28431;SDS011;15664;51.302;7.744;2023-05-06T03:34:30;19.38;;;6.38;;
28431;SDS011;15664;51.302;7.744;2023-05-06T03:36:57;17.20;;;5.65;;
28431;SDS011;15664;51.302;7.744;2023-05-06T03:39:25;20.10;;;6.43;;
28431;SDS011;15664;51.302;7.744;2023-05-06T03:41:50;20.37;;;6.43;;
28431;SDS011;15664;51.302;7.744;2023-05-06T03:44:16;18.55;;;6.03;;
28431;SDS011;15664;51.302;7.744;2023-05-06T03:46:42;16.47;;;5.60;;
28431;SDS011;15664;51.302;7.744;2023-05-06T03:49:08;23.58;;;6.47;;
28431;SDS011;15664;51.302;7.744;2023-05-06T03:51:34;23.07;;;6.80;;
28431;SDS011;15664;51.302;7.744;2023-05-06T03:54:00;21.92;;;5.70;;
28431;SDS011;15664;51.302;7.744;2023-05-06T03:56:25;15.50;;;5.40;;
28431;SDS011;15664;51.302;7.744;2023-05-06T03:58:55;21.73;;;6.25;;
28431;SDS011;15664;51.302;7.744;2023-05-06T04:01:22;17.42;;;6.57;;
28431;SDS011;15664;51.302;7.744;2023-05-06T04:03:48;18.80;;;5.50;;
28431;SDS011;15664;51.302;7.744;2023-05-06T04:06:13;15.47;;;3.87;;
28431;SDS011;15664;51.302;7.744;2023-05-06T04:08:39;14.63;;;4.47;;
28431;SDS011;15664;51.302;7.744;2023-05-06T04:11:05;14.03;;;3.97;;
28431;SDS011;15664;51.302;7.744;2023-05-06T04:13:31;16.90;;;4.28;;
28431;SDS011;15664;51.302;7.744;2023-05-06T04:16:00;17.60;;;4.25;;
28431;SDS011;15664;51.302;7.744;2023-05-06T04:18:34;18.88;;;4.43;;
28431;SDS011;15664;51.302;7.744;2023-05-06T04:21:04;11.68;;;3.92;;
28431;SDS011;15664;51.302;7.744;2023-05-06T04:23:33;14.33;;;5.40;;
28431;SDS011;15664;51.302;7.744;2023-05-06T04:25:59;14.43;;;5.35;;
28431;SDS011;15664;51.302;7.744;2023-05-06T04:28:26;15.15;;;5.50;;
28431;SDS011;15664;51.302;7.744;2023-05-06T04:30:52;15.95;;;5.53;;
28431;SDS011;15664;51.302;7.744;2023-05-06T04:33:20;17.00;;;5.90;;
28431;SDS011;15664;51.302;7.744;2023-05-06T04:35:50;20.10;;;6.75;;
28431;SDS011;15664;51.302;7.744;2023-05-06T04:38:19;18.23;;;6.18;;
28431;SDS011;15664;51.302;7.744;2023-05-06T04:40:46;22.42;;;6.40;;
28431;SDS011;15664;51.302;7.744;2023-05-06T04:43:12;21.52;;;6.50;;
28431;SDS011;15664;51.302;7.744;2023-05-06T04:45:41;47.65;;;14.68;;
28431;SDS011;15664;51.302;7.744;2023-05-06T04:48:06;35.33;;;11.48;;
28431;SDS011;15664;51.302;7.744;2023-05-06T04:50:34;25.38;;;7.90;;
28431;SDS011;15664;51.302;7.744;2023-05-06T04:53:00;18.88;;;7.25;;
28431;SDS011;15664;51.302;7.744;2023-05-06T04:55:26;18.03;;;6.47;;
28431;SDS011;15664;51.302;7.744;2023-05-06T04:57:52;17.52;;;5.93;;
28431;SDS011;15664;51.302;7.744;2023-05-06T05:00:17;18.30;;;4.43;;
28431;SDS011;15664;51.302;7.744;2023-05-06T05:02:44;12.25;;;4.43;;
28431;SDS011;15664;51.302;7.744;2023-05-06T05:05:13;17.77;;;4.20;;
28431;SDS011;15664;51.302;7.744;2023-05-06T05:07:40;18.30;;;5.97;;
28431;SDS011;15664;51.302;7.744;2023-05-06T05:10:06;14.10;;;4.53;;
28431;SDS011;15664;51.302;7.744;2023-05-06T05:12:33;15.70;;;5.40;;
28431;SDS011;15664;51.302;7.744;2023-05-06T05:15:00;16.77;;;5.85;;
28431;SDS011;15664;51.302;7.744;2023-05-06T05:17:26;18.05;;;5.47;;
28431;SDS011;15664;51.302;7.744;2023-05-06T05:19:52;15.23;;;5.53;;
28431;SDS011;15664;51.302;7.744;2023-05-06T05:22:17;14.17;;;5.00;;
28431;SDS011;15664;51.302;7.744;2023-05-06T05:24:43;16.70;;;4.67;;
28431;SDS011;15664;51.302;7.744;2023-05-06T05:27:09;17.67;;;4.82;;
28431;SDS011;15664;51.302;7.744;2023-05-06T05:29:35;20.65;;;5.18;;
28431;SDS011;15664;51.302;7.744;2023-05-06T05:32:04;18.02;;;5.38;;
28431;SDS011;15664;51.302;7.744;2023-05-06T05:34:29;13.77;;;3.63;;
28431;SDS011;15664;51.302;7.744;2023-05-06T05:36:55;29.00;;;4.00;;
28431;SDS011;15664;51.302;7.744;2023-05-06T05:39:24;20.10;;;3.92;;
28431;SDS011;15664;51.302;7.744;2023-05-06T05:41:49;24.17;;;4.20;;
28431;SDS011;15664;51.302;7.744;2023-05-06T05:44:15;28.33;;;4.88;;
28431;SDS011;15664;51.302;7.744;2023-05-06T05:46:42;31.35;;;6.30;;
28431;SDS011;15664;51.302;7.744;2023-05-06T05:49:10;22.55;;;4.95;;
28431;SDS011;15664;51.302;7.744;2023-05-06T05:51:36;19.83;;;5.33;;
28431;SDS011;15664;51.302;7.744;2023-05-06T05:54:03;17.92;;;5.28;;
28431;SDS011;15664;51.302;7.744;2023-05-06T05:56:29;32.63;;;5.72;;
28431;SDS011;15664;51.302;7.744;2023-05-06T05:58:55;15.13;;;4.37;;
28431;SDS011;15664;51.302;7.744;2023-05-06T06:01:21;18.05;;;4.03;;
28431;SDS011;15664;51.302;7.744;2023-05-06T06:03:47;12.40;;;4.27;;
28431;SDS011;15664;51.302;7.744;2023-05-06T06:06:12;15.33;;;4.57;;
28431;SDS011;15664;51.302;7.744;2023-05-06T06:08:38;17.98;;;3.67;;
28431;SDS011;15664;51.302;7.744;2023-05-06T06:11:03;11.93;;;3.87;;
28431;SDS011;15664;51.302;7.744;2023-05-06T06:13:35;16.73;;;4.18;;
28431;SDS011;15664;51.302;7.744;2023-05-06T06:16:01;17.13;;;3.65;;
28431;SDS011;15664;51.302;7.744;2023-05-06T06:18:26;15.27;;;3.90;;
28431;SDS011;15664;51.302;7.744;2023-05-06T06:20:52;13.27;;;3.95;;
28431;SDS011;15664;51.302;7.744;2023-05-06T06:23:17;22.27;;;4.13;;
28431;SDS011;15664;51.302;7.744;2023-05-06T06:25:43;16.52;;;3.78;;
28431;SDS011;15664;51.302;7.744;2023-05-06T06:28:08;23.27;;;4.07;;
28431;SDS011;15664;51.302;7.744;2023-05-06T06:30:34;24.10;;;2.97;;
28431;SDS011;15664;51.302;7.744;2023-05-06T06:33:00;18.30;;;3.22;;
28431;SDS011;15664;51.302;7.744;2023-05-06T06:35:26;13.50;;;3.80;;
28431;SDS011;15664;51.302;7.744;2023-05-06T06:37:52;14.93;;;5.53;;
28431;SDS011;15664;51.302;7.744;2023-05-06T06:40:17;14.10;;;4.80;;
28431;SDS011;15664;51.302;7.744;2023-05-06T06:42:42;13.57;;;4.63;;
28431;SDS011;15664;51.302;7.744;2023-05-06T06:45:31;12.75;;;5.13;;
28431;SDS011;15664;51.302;7.744;2023-05-06T06:47:57;13.10;;;4.83;;
28431;SDS011;15664;51.302;7.744;2023-05-06T06:50:22;12.43;;;4.80;;
28431;SDS011;15664;51.302;7.744;2023-05-06T06:52:47;10.13;;;4.10;;
28431;SDS011;15664;51.302;7.744;2023-05-06T06:55:13;10.30;;;4.60;;
28431;SDS011;15664;51.302;7.744;2023-05-06T06:57:38;10.68;;;4.50;;
28431;SDS011;15664;51.302;7.744;2023-05-06T07:00:04;11.27;;;4.63;;
28431;SDS011;15664;51.302;7.744;2023-05-06T07:02:30;11.65;;;4.53;;
28431;SDS011;15664;51.302;7.744;2023-05-06T07:04:55;11.10;;;4.53;;
28431;SDS011;15664;51.302;7.744;2023-05-06T07:07:21;10.60;;;4.43;;
28431;SDS011;15664;51.302;7.744;2023-05-06T07:09:46;12.10;;;4.35;;
28431;SDS011;15664;51.302;7.744;2023-05-06T07:12:12;11.35;;;4.35;;
28431;SDS011;15664;51.302;7.744;2023-05-06T07:14:37;10.20;;;4.77;;
28431;SDS011;15664;51.302;7.744;2023-05-06T07:17:02;10.30;;;4.40;;
28431;SDS011;15664;51.302;7.744;2023-05-06T07:19:28;11.35;;;4.20;;
28431;SDS011;15664;51.302;7.744;2023-05-06T07:21:55;10.10;;;4.07;;
28431;SDS011;15664;51.302;7.744;2023-05-06T07:24:21;10.32;;;4.43;;
28431;SDS011;15664;51.302;7.744;2023-05-06T07:26:46;10.53;;;4.17;;
28431;SDS011;15664;51.302;7.744;2023-05-06T07:29:12;9.47;;;4.20;;
28431;SDS011;15664;51.302;7.744;2023-05-06T07:31:37;10.83;;;4.57;;
28431;SDS011;15664;51.302;7.744;2023-05-06T07:34:03;11.90;;;4.43;;
28431;SDS011;15664;51.302;7.744;2023-05-06T07:36:28;10.83;;;4.30;;
28431;SDS011;15664;51.302;7.744;2023-05-06T07:38:55;9.38;;;4.28;;
28431;SDS011;15664;51.302;7.744;2023-05-06T07:41:20;10.43;;;4.30;;
28431;SDS011;15664;51.302;7.744;2023-05-06T07:43:46;9.80;;;4.10;;
28431;SDS011;15664;51.302;7.744;2023-05-06T07:46:11;9.70;;;3.53;;
28431;SDS011;15664;51.302;7.744;2023-05-06T07:48:37;12.93;;;4.38;;
28431;SDS011;15664;51.302;7.744;2023-05-06T07:51:02;12.80;;;3.70;;
28431;SDS011;15664;51.302;7.744;2023-05-06T07:53:28;10.43;;;4.07;;
28431;SDS011;15664;51.302;7.744;2023-05-06T07:55:53;8.65;;;3.75;;
28431;SDS011;15664;51.302;7.744;2023-05-06T07:58:21;10.25;;;4.40;;
28431;SDS011;15664;51.302;7.744;2023-05-06T08:00:47;11.07;;;4.38;;
28431;SDS011;15664;51.302;7.744;2023-05-06T08:03:12;10.93;;;3.80;;
28431;SDS011;15664;51.302;7.744;2023-05-06T08:05:38;9.23;;;3.77;;
28431;SDS011;15664;51.302;7.744;2023-05-06T08:08:03;9.00;;;4.03;;
28431;SDS011;15664;51.302;7.744;2023-05-06T08:10:29;11.93;;;4.03;;
28431;SDS011;15664;51.302;7.744;2023-05-06T08:12:54;10.60;;;4.00;;
28431;SDS011;15664;51.302;7.744;2023-05-06T08:15:20;11.43;;;4.15;;
28431;SDS011;15664;51.302;7.744;2023-05-06T08:17:45;10.90;;;4.57;;
28431;SDS011;15664;51.302;7.744;2023-05-06T08:20:12;9.87;;;4.67;;
28431;SDS011;15664;51.302;7.744;2023-05-06T08:22:37;9.38;;;4.40;;
28431;SDS011;15664;51.302;7.744;2023-05-06T08:25:03;11.00;;;4.83;;
28431;SDS011;15664;51.302;7.744;2023-05-06T08:27:29;12.68;;;4.63;;
28431;SDS011;15664;51.302;7.744;2023-05-06T08:29:54;12.00;;;4.60;;
28431;SDS011;15664;51.302;7.744;2023-05-06T08:32:20;10.60;;;4.17;;
28431;SDS011;15664;51.302;7.744;2023-05-06T08:34:45;8.48;;;3.75;;
28431;SDS011;15664;51.302;7.744;2023-05-06T08:37:11;9.10;;;4.17;;
28431;SDS011;15664;51.302;7.744;2023-05-06T08:39:36;8.93;;;4.00;;
28431;SDS011;15664;51.302;7.744;2023-05-06T08:42:02;9.17;;;3.97;;
28431;SDS011;15664;51.302;7.744;2023-05-06T08:44:27;7.53;;;3.47;;
28431;SDS011;15664;51.302;7.744;2023-05-06T08:46:52;9.20;;;3.93;;
28431;SDS011;15664;51.302;7.744;2023-05-06T08:49:17;8.15;;;3.28;;
28431;SDS011;15664;51.302;7.744;2023-05-06T08:51:43;9.10;;;3.97;;
28431;SDS011;15664;51.302;7.744;2023-05-06T08:54:09;8.27;;;3.53;;
28431;SDS011;15664;51.302;7.744;2023-05-06T08:56:34;9.55;;;3.97;;
28431;SDS011;15664;51.302;7.744;2023-05-06T08:59:00;6.97;;;3.55;;
28431;SDS011;15664;51.302;7.744;2023-05-06T09:01:26;7.90;;;3.70;;
28431;SDS011;15664;51.302;7.744;2023-05-06T09:03:51;9.23;;;3.55;;
28431;SDS011;15664;51.302;7.744;2023-05-06T09:06:17;5.93;;;2.47;;
28431;SDS011;15664;51.302;7.744;2023-05-06T09:08:42;5.23;;;2.40;;
28431;SDS011;15664;51.302;7.744;2023-05-06T09:11:17;4.22;;;2.10;;
28431;SDS011;15664;51.302;7.744;2023-05-06T09:13:43;5.13;;;2.13;;
28431;SDS011;15664;51.302;7.744;2023-05-06T09:16:08;5.63;;;2.25;;
28431;SDS011;15664;51.302;7.744;2023-05-06T09:18:35;5.77;;;2.67;;
28431;SDS011;15664;51.302;7.744;2023-05-06T09:21:02;5.77;;;2.37;;
28431;SDS011;15664;51.302;7.744;2023-05-06T09:23:28;6.18;;;2.40;;
28431;SDS011;15664;51.302;7.744;2023-05-06T09:25:53;5.27;;;2.70;;
28431;SDS011;15664;51.302;7.744;2023-05-06T09:28:18;6.00;;;2.73;;
28431;SDS011;15664;51.302;7.744;2023-05-06T09:30:44;6.60;;;2.53;;
28431;SDS011;15664;51.302;7.744;2023-05-06T09:33:10;6.68;;;2.03;;
28431;SDS011;15664;51.302;7.744;2023-05-06T09:35:36;5.82;;;2.30;;
28431;SDS011;15664;51.302;7.744;2023-05-06T09:38:02;4.77;;;2.30;;
28431;SDS011;15664;51.302;7.744;2023-05-06T09:40:28;6.20;;;2.80;;
28431;SDS011;15664;51.302;7.744;2023-05-06T09:42:55;5.65;;;2.13;;
28431;SDS011;15664;51.302;7.744;2023-05-06T09:45:20;7.67;;;2.80;;
28431;SDS011;15664;51.302;7.744;2023-05-06T09:47:46;5.73;;;2.17;;
28431;SDS011;15664;51.302;7.744;2023-05-06T09:50:13;4.22;;;2.08;;
28431;SDS011;15664;51.302;7.744;2023-05-06T09:52:41;4.07;;;2.23;;
28431;SDS011;15664;51.302;7.744;2023-05-06T09:55:08;4.65;;;2.60;;
28431;SDS011;15664;51.302;7.744;2023-05-06T09:57:34;5.32;;;2.40;;
28431;SDS011;15664;51.302;7.744;2023-05-06T10:00:00;7.07;;;2.50;;
28431;SDS011;15664;51.302;7.744;2023-05-06T10:02:26;7.40;;;2.67;;
28431;SDS011;15664;51.302;7.744;2023-05-06T10:04:52;5.90;;;2.22;;
28431;SDS011;15664;51.302;7.744;2023-05-06T10:07:19;5.00;;;2.17;;
28431;SDS011;15664;51.302;7.744;2023-05-06T10:09:46;4.10;;;1.88;;
28431;SDS011;15664;51.302;7.744;2023-05-06T10:12:12;5.82;;;2.47;;
28431;SDS011;15664;51.302;7.744;2023-05-06T10:14:39;4.43;;;2.13;;
28431;SDS011;15664;51.302;7.744;2023-05-06T10:17:05;6.30;;;2.10;;
28431;SDS011;15664;51.302;7.744;2023-05-06T10:19:31;6.30;;;2.42;;
28431;SDS011;15664;51.302;7.744;2023-05-06T10:22:00;3.83;;;1.73;;
28431;SDS011;15664;51.302;7.744;2023-05-06T10:24:28;4.82;;;2.50;;
28431;SDS011;15664;51.302;7.744;2023-05-06T10:26:56;6.20;;;2.40;;
28431;SDS011;15664;51.302;7.744;2023-05-06T10:29:21;6.63;;;2.10;;
28431;SDS011;15664;51.302;7.744;2023-05-06T10:31:52;7.45;;;2.45;;
28431;SDS011;15664;51.302;7.744;2023-05-06T10:34:18;5.18;;;2.00;;
28431;SDS011;15664;51.302;7.744;2023-05-06T10:36:44;4.10;;;1.80;;
28431;SDS011;15664;51.302;7.744;2023-05-06T10:39:10;4.00;;;2.10;;
28431;SDS011;15664;51.302;7.744;2023-05-06T10:41:37;4.07;;;1.57;;
28431;SDS011;15664;51.302;7.744;2023-05-06T10:44:02;5.03;;;1.90;;
28431;SDS011;15664;51.302;7.744;2023-05-06T10:46:29;5.10;;;2.08;;
28431;SDS011;15664;51.302;7.744;2023-05-06T10:51:39;5.87;;;1.90;;
28431;SDS011;15664;51.302;7.744;2023-05-06T10:54:20;3.15;;;1.70;;
28431;SDS011;15664;51.302;7.744;2023-05-06T10:59:14;4.30;;;1.60;;
28431;SDS011;15664;51.302;7.744;2023-05-06T11:01:43;2.95;;;1.48;;
28431;SDS011;15664;51.302;7.744;2023-05-06T11:04:16;3.33;;;1.50;;
28431;SDS011;15664;51.302;7.744;2023-05-06T11:06:49;4.40;;;1.90;;
28431;SDS011;15664;51.302;7.744;2023-05-06T11:09:15;3.13;;;1.70;;
28431;SDS011;15664;51.302;7.744;2023-05-06T11:11:45;3.60;;;1.70;;
28431;SDS011;15664;51.302;7.744;2023-05-06T11:14:11;5.10;;;1.83;;
28431;SDS011;15664;51.302;7.744;2023-05-06T11:16:49;3.37;;;1.80;;
28431;SDS011;15664;51.302;7.744;2023-05-06T11:19:22;4.97;;;1.48;;
28431;SDS011;15664;51.302;7.744;2023-05-06T11:21:48;4.45;;;1.70;;
28431;SDS011;15664;51.302;7.744;2023-05-06T11:24:14;2.92;;;1.50;;
28431;SDS011;15664;51.302;7.744;2023-05-06T11:26:45;3.53;;;1.42;;
28431;SDS011;15664;51.302;7.744;2023-05-06T11:29:11;2.57;;;1.33;;
28431;SDS011;15664;51.302;7.744;2023-05-06T11:31:39;4.57;;;2.08;;
28431;SDS011;15664;51.302;7.744;2023-05-06T11:34:06;3.17;;;1.50;;
28431;SDS011;15664;51.302;7.744;2023-05-06T11:36:33;4.18;;;1.77;;
28431;SDS011;15664;51.302;7.744;2023-05-06T11:39:02;3.20;;;1.60;;
28431;SDS011;15664;51.302;7.744;2023-05-06T11:41:29;4.50;;;1.30;;
28431;SDS011;15664;51.302;7.744;2023-05-06T11:43:54;2.67;;;1.40;;
28431;SDS011;15664;51.302;7.744;2023-05-06T11:46:21;4.00;;;1.33;;
28431;SDS011;15664;51.302;7.744;2023-05-06T11:48:46;5.32;;;1.80;;
28431;SDS011;15664;51.302;7.744;2023-05-06T11:51:12;3.05;;;1.40;;
28431;SDS011;15664;51.302;7.744;2023-05-06T11:53:37;2.93;;;1.10;;
28431;SDS011;15664;51.302;7.744;2023-05-06T11:56:04;3.07;;;1.43;;
28431;SDS011;15664;51.302;7.744;2023-05-06T11:58:30;3.65;;;1.10;;
28431;SDS011;15664;51.302;7.744;2023-05-06T12:00:56;2.83;;;1.30;;
28431;SDS011;15664;51.302;7.744;2023-05-06T12:03:22;3.17;;;1.17;;
28431;SDS011;15664;51.302;7.744;2023-05-06T12:05:48;3.17;;;1.33;;
28431;SDS011;15664;51.302;7.744;2023-05-06T12:08:20;1.77;;;1.00;;
28431;SDS011;15664;51.302;7.744;2023-05-06T12:10:48;2.05;;;1.23;;
28431;SDS011;15664;51.302;7.744;2023-05-06T12:13:14;3.70;;;1.10;;
28431;SDS011;15664;51.302;7.744;2023-05-06T12:15:40;3.97;;;1.10;;
28431;SDS011;15664;51.302;7.744;2023-05-06T12:18:06;4.88;;;1.23;;
28431;SDS011;15664;51.302;7.744;2023-05-06T12:20:31;2.20;;;1.10;;
28431;SDS011;15664;51.302;7.744;2023-05-06T12:23:10;3.63;;;1.20;;
28431;SDS011;15664;51.302;7.744;2023-05-06T12:25:35;5.10;;;1.23;;
28431;SDS011;15664;51.302;7.744;2023-05-06T12:28:11;2.75;;;1.20;;
28431;SDS011;15664;51.302;7.744;2023-05-06T12:30:37;2.10;;;1.00;;
28431;SDS011;15664;51.302;7.744;2023-05-06T12:33:02;2.92;;;1.70;;
28431;SDS011;15664;51.302;7.744;2023-05-06T12:35:28;3.33;;;1.10;;
28431;SDS011;15664;51.302;7.744;2023-05-06T12:37:54;3.88;;;1.20;;
28431;SDS011;15664;51.302;7.744;2023-05-06T12:40:20;2.70;;;1.10;;
28431;SDS011;15664;51.302;7.744;2023-05-06T12:42:52;1.70;;;1.07;;
28431;SDS011;15664;51.302;7.744;2023-05-06T12:45:17;2.65;;;1.02;;
28431;SDS011;15664;51.302;7.744;2023-05-06T12:47:55;3.40;;;1.10;;
28431;SDS011;15664;51.302;7.744;2023-05-06T12:52:55;1.67;;;0.80;;
28431;SDS011;15664;51.302;7.744;2023-05-06T12:55:20;2.80;;;1.07;;
28431;SDS011;15664;51.302;7.744;2023-05-06T12:57:47;1.70;;;1.00;;
28431;SDS011;15664;51.302;7.744;2023-05-06T13:00:14;1.88;;;1.10;;
28431;SDS011;15664;51.302;7.744;2023-05-06T13:02:39;1.75;;;0.82;;
28431;SDS011;15664;51.302;7.744;2023-05-06T13:05:05;2.08;;;0.82;;
28431;SDS011;15664;51.302;7.744;2023-05-06T13:07:30;2.80;;;1.13;;
28431;SDS011;15664;51.302;7.744;2023-05-06T13:09:56;2.50;;;1.20;;
28431;SDS011;15664;51.302;7.744;2023-05-06T13:12:21;1.67;;;0.83;;
28431;SDS011;15664;51.302;7.744;2023-05-06T13:14:46;2.60;;;0.80;;
28431;SDS011;15664;51.302;7.744;2023-05-06T13:17:12;4.15;;;1.00;;
28431;SDS011;15664;51.302;7.744;2023-05-06T13:19:38;3.47;;;1.20;;
28431;SDS011;15664;51.302;7.744;2023-05-06T13:22:04;1.73;;;1.02;;
28431;SDS011;15664;51.302;7.744;2023-05-06T13:24:30;2.15;;;1.10;;
28431;SDS011;15664;51.302;7.744;2023-05-06T13:26:56;2.67;;;1.15;;
28431;SDS011;15664;51.302;7.744;2023-05-06T13:29:23;1.77;;;1.00;;
28431;SDS011;15664;51.302;7.744;2023-05-06T13:31:48;3.90;;;1.10;;
28431;SDS011;15664;51.302;7.744;2023-05-06T13:34:13;2.37;;;0.80;;
28431;SDS011;15664;51.302;7.744;2023-05-06T13:36:39;3.00;;;1.43;;
28431;SDS011;15664;51.302;7.744;2023-05-06T13:39:04;1.83;;;0.90;;
28431;SDS011;15664;51.302;7.744;2023-05-06T13:41:29;3.23;;;1.33;;
28431;SDS011;15664;51.302;7.744;2023-05-06T13:43:54;3.10;;;1.10;;
28431;SDS011;15664;51.302;7.744;2023-05-06T13:46:20;2.80;;;1.00;;
28431;SDS011;15664;51.302;7.744;2023-05-06T13:48:45;2.63;;;1.17;;
28431;SDS011;15664;51.302;7.744;2023-05-06T13:51:10;2.60;;;1.20;;
28431;SDS011;15664;51.302;7.744;2023-05-06T13:53:36;3.55;;;1.50;;
28431;SDS011;15664;51.302;7.744;2023-05-06T13:56:03;2.83;;;1.30;;
28431;SDS011;15664;51.302;7.744;2023-05-06T13:58:28;2.87;;;1.40;;
28431;SDS011;15664;51.302;7.744;2023-05-06T14:00:54;3.13;;;1.60;;
28431;SDS011;15664;51.302;7.744;2023-05-06T14:03:19;2.07;;;1.23;;
28431;SDS011;15664;51.302;7.744;2023-05-06T14:05:45;2.80;;;1.20;;
28431;SDS011;15664;51.302;7.744;2023-05-06T14:08:10;2.30;;;0.97;;
28431;SDS011;15664;51.302;7.744;2023-05-06T14:10:35;3.03;;;1.00;;
28431;SDS011;15664;51.302;7.744;2023-05-06T14:13:00;4.90;;;1.20;;
28431;SDS011;15664;51.302;7.744;2023-05-06T14:15:26;5.43;;;1.17;;
28431;SDS011;15664;51.302;7.744;2023-05-06T14:17:51;2.97;;;1.00;;
28431;SDS011;15664;51.302;7.744;2023-05-06T14:20:17;3.17;;;1.10;;
28431;SDS011;15664;51.302;7.744;2023-05-06T14:22:42;5.80;;;2.00;;
28431;SDS011;15664;51.302;7.744;2023-05-06T14:25:08;4.93;;;1.80;;
28431;SDS011;15664;51.302;7.744;2023-05-06T14:27:33;2.43;;;1.10;;
28431;SDS011;15664;51.302;7.744;2023-05-06T14:29:59;2.45;;;1.00;;
28431;SDS011;15664;51.302;7.744;2023-05-06T14:32:25;184.73;;;25.55;;
28431;SDS011;15664;51.302;7.744;2023-05-06T14:34:50;16.83;;;2.90;;
28431;SDS011;15664;51.302;7.744;2023-05-06T14:37:16;9.27;;;2.13;;
28431;SDS011;15664;51.302;7.744;2023-05-06T14:39:41;9.03;;;1.63;;
28431;SDS011;15664;51.302;7.744;2023-05-06T14:42:07;5.57;;;1.63;;
28431;SDS011;15664;51.302;7.744;2023-05-06T14:44:33;6.78;;;2.17;;
28431;SDS011;15664;51.302;7.744;2023-05-06T14:46:58;77.60;;;20.07;;
28431;SDS011;15664;51.302;7.744;2023-05-06T14:49:23;51.43;;;13.17;;
28431;SDS011;15664;51.302;7.744;2023-05-06T14:51:49;3.13;;;1.10;;